createdAt,value
2023-03-21T00:00:38.023Z,30.40
2023-03-21T00:03:43.335Z,30.00
2023-03-21T00:06:46.667Z,30.00
2023-03-21T00:09:52.429Z,29.40
2023-03-21T00:12:58.745Z,30.00
2023-03-21T00:16:19.310Z,30.00
2023-03-21T00:19:29.635Z,30.40
2023-03-21T00:22:35.119Z,30.00
2023-03-21T00:25:40.336Z,31.33
2023-03-21T00:28:44.817Z,29.00
2023-03-21T00:31:49.382Z,33.80
2023-03-21T00:38:16.702Z,32.40
2023-03-21T00:41:39.150Z,30.00
2023-03-21T00:44:45.007Z,30.00
2023-03-21T00:47:48.301Z,32.00
2023-03-21T00:50:54.215Z,30.00
2023-03-21T00:53:59.583Z,31.40
2023-03-21T00:57:06.162Z,31.40
2023-03-21T01:00:12.091Z,31.40
2023-03-21T01:03:24.771Z,30.00
2023-03-21T01:06:28.656Z,30.60
2023-03-21T01:09:32.916Z,30.00
2023-03-21T01:12:37.551Z,29.50
2023-03-21T01:15:45.818Z,31.40
2023-03-21T01:18:49.078Z,27.00
2023-03-21T01:21:52.610Z,27.20
2023-03-21T01:25:05.669Z,32.00
2023-03-21T01:28:13.689Z,29.00
2023-03-21T01:31:18.473Z,29.40
2023-03-21T01:34:22.071Z,28.00
2023-03-21T01:37:26.693Z,27.25
2023-03-21T01:40:31.792Z,29.00
2023-03-21T01:43:47.838Z,30.60
2023-03-21T01:47:11.127Z,31.80
2023-03-21T01:50:53.503Z,30.60
2023-03-21T01:54:01.854Z,30.00
2023-03-21T01:57:13.188Z,31.20
2023-03-21T02:00:19.014Z,30.75
2023-03-21T02:03:34.964Z,31.80
2023-03-21T02:07:02.037Z,29.75
2023-03-21T02:10:17.853Z,30.00
2023-03-21T02:13:25.452Z,30.60
2023-03-21T02:16:42.559Z,26.80
2023-03-21T02:20:16.626Z,30.00
2023-03-21T02:23:58.375Z,29.80
2023-03-21T02:27:11.891Z,29.50
2023-03-21T02:30:52.088Z,27.00
2023-03-21T02:34:33.876Z,30.00
2023-03-21T02:37:46.755Z,29.00
2023-03-21T02:41:07.666Z,29.00
2023-03-21T02:44:24.527Z,30.00
2023-03-21T02:47:33.608Z,30.00
2023-03-21T02:50:43.740Z,27.75
2023-03-21T02:54:16.248Z,28.00
2023-03-21T02:57:17.707Z,30.20
2023-03-21T03:00:25.084Z,30.00
2023-03-21T03:03:34.529Z,30.00
2023-03-21T03:06:49.462Z,30.00
2023-03-21T03:10:09.527Z,29.50
2023-03-21T03:13:22.908Z,33.00
2023-03-21T03:16:36.843Z,30.25
2023-03-21T03:19:51.457Z,30.00
2023-03-21T03:23:05.744Z,28.00
2023-03-21T03:26:16.351Z,30.00
2023-03-21T03:29:23.164Z,32.00
2023-03-21T03:32:33.124Z,32.00
2023-03-21T03:35:36.601Z,32.40
2023-03-21T03:38:41.811Z,32.00
2023-03-21T03:42:07.910Z,33.00
2023-03-21T03:45:17.795Z,33.00
2023-03-21T03:48:27.819Z,33.00
2023-03-21T03:51:45.359Z,34.40
2023-03-21T03:55:00.375Z,31.50
2023-03-21T03:58:21.172Z,34.50
2023-03-21T04:01:26.746Z,35.40
2023-03-21T04:04:33.517Z,35.00
2023-03-21T04:07:37.233Z,35.00
2023-03-21T04:10:40.777Z,34.25
2023-03-21T04:13:46.152Z,32.00
2023-03-21T04:16:56.118Z,35.00
2023-03-21T04:20:10.941Z,33.00
2023-03-21T04:23:16.386Z,36.00
2023-03-21T04:26:22.413Z,35.00
2023-03-21T04:29:46.957Z,34.00
2023-03-21T04:33:03.688Z,35.40
2023-03-21T04:36:26.029Z,34.60
2023-03-21T04:39:31.652Z,33.00
2023-03-21T04:42:36.015Z,31.60
2023-03-21T04:45:40.668Z,32.00
2023-03-21T04:48:45.212Z,32.00
2023-03-21T04:51:48.727Z,32.00
2023-03-21T04:54:55.505Z,32.00
2023-03-21T04:57:59.753Z,30.00
2023-03-21T05:01:06.238Z,29.00
2023-03-21T05:04:09.810Z,30.20
2023-03-21T05:07:13.454Z,29.00
2023-03-21T05:10:17.552Z,29.60
2023-03-21T05:13:20.954Z,30.00
2023-03-21T05:16:30.648Z,32.00
2023-03-21T05:19:40.595Z,27.20
2023-03-21T05:22:46.329Z,29.00
2023-03-21T05:25:51.907Z,28.75
2023-03-21T05:29:09.510Z,27.20
2023-03-21T05:32:14.922Z,29.20
2023-03-21T05:35:18.502Z,27.00
2023-03-21T05:38:21.879Z,27.60
2023-03-21T05:41:28.092Z,27.00
2023-03-21T05:44:31.363Z,27.00
2023-03-21T05:47:37.696Z,28.00
2023-03-21T05:50:41.468Z,25.60
2023-03-21T05:53:53.444Z,25.50
2023-03-21T05:56:58.222Z,24.00
2023-03-21T06:00:24.931Z,24.00
2023-03-21T06:03:54.206Z,22.00
2023-03-21T06:06:59.656Z,22.00
2023-03-21T06:10:03.031Z,19.50
2023-03-21T06:13:06.565Z,16.50
2023-03-21T06:16:10.879Z,19.40
2023-03-21T06:19:16.494Z,18.00
2023-03-21T06:22:35.346Z,18.00
2023-03-21T06:25:39.601Z,17.20
2023-03-21T06:28:43.197Z,18.00
2023-03-21T06:31:46.785Z,14.60
2023-03-21T06:34:51.630Z,15.00
2023-03-21T06:37:55.265Z,17.75
2023-03-21T06:40:58.977Z,13.80
2023-03-21T06:44:06.550Z,11.00
2023-03-21T06:47:16.913Z,11.80
2023-03-21T06:50:23.958Z,12.00
2023-03-21T06:53:28.185Z,13.80
2023-03-21T06:56:47.104Z,11.00
2023-03-21T06:59:57.614Z,12.00
2023-03-21T07:03:01.943Z,9.60
2023-03-21T07:06:09.785Z,12.00
2023-03-21T07:09:14.695Z,12.75
2023-03-21T07:12:18.630Z,9.40
2023-03-21T07:15:39.350Z,11.00
2023-03-21T07:18:42.850Z,11.00
2023-03-21T07:21:49.643Z,9.80
2023-03-21T07:25:04.086Z,9.00
2023-03-21T07:28:13.866Z,10.80
2023-03-21T07:31:19.549Z,9.00
2023-03-21T07:34:24.902Z,8.80
2023-03-21T07:37:29.571Z,10.00
2023-03-21T07:40:33.794Z,8.00
2023-03-21T07:43:39.209Z,8.00
2023-03-21T07:46:45.994Z,9.00
2023-03-21T07:49:49.157Z,8.00
2023-03-21T07:52:54.532Z,9.00
2023-03-21T07:55:57.827Z,9.80
2023-03-21T07:59:01.141Z,8.00
2023-03-21T08:02:04.409Z,10.00
2023-03-21T08:05:08.251Z,8.60
2023-03-21T08:08:13.153Z,9.00
2023-03-21T08:11:18.199Z,10.00
2023-03-21T08:14:21.430Z,10.60
2023-03-21T08:17:24.673Z,12.40
2023-03-21T08:20:28.711Z,9.00
2023-03-21T08:23:33.352Z,6.00
2023-03-21T08:26:37.191Z,8.00
2023-03-21T08:29:42.475Z,7.00
2023-03-21T08:32:45.783Z,6.80
2023-03-21T08:35:49.420Z,7.00
2023-03-21T08:38:57.263Z,9.00
2023-03-21T08:42:00.818Z,10.00
2023-03-21T08:45:05.075Z,8.00
2023-03-21T08:48:08.327Z,11.00
2023-03-21T08:51:11.727Z,10.60
2023-03-21T08:54:24.129Z,13.00
2023-03-21T08:57:27.455Z,11.00
2023-03-21T09:00:31.165Z,11.00
2023-03-21T09:03:34.531Z,10.00
2023-03-21T09:06:38.107Z,10.00
2023-03-21T09:09:42.849Z,9.20
2023-03-21T09:12:46.300Z,12.00
2023-03-21T09:15:49.806Z,11.75
2023-03-21T09:18:55.894Z,12.00
2023-03-21T09:21:59.878Z,10.00
2023-03-21T09:25:07.603Z,15.20
2023-03-21T09:28:10.825Z,13.67
2023-03-21T09:31:16.707Z,13.00
2023-03-21T09:34:19.949Z,12.75
2023-03-21T09:37:23.221Z,13.00
2023-03-21T09:40:41.567Z,13.40
2023-03-21T09:43:57.908Z,15.00
2023-03-21T09:47:10.588Z,13.00
2023-03-21T09:50:20.559Z,14.00
2023-03-21T09:53:27.747Z,14.00
2023-03-21T09:56:33.273Z,14.00
2023-03-21T09:59:40.403Z,13.00
2023-03-21T10:02:48.065Z,13.50
2023-03-21T10:05:57.548Z,15.60
2023-03-21T10:09:07.521Z,19.60
2023-03-21T10:12:30.660Z,16.20
2023-03-21T10:15:34.055Z,21.00
2023-03-21T10:18:39.251Z,22.40
2023-03-21T10:22:03.370Z,22.00
2023-03-21T10:25:09.211Z,19.25
2023-03-21T10:28:19.835Z,21.40
2023-03-21T10:31:26.543Z,20.40
2023-03-21T10:34:37.133Z,22.00
2023-03-21T10:37:42.197Z,20.00
2023-03-21T10:40:45.742Z,18.00
2023-03-21T10:44:07.120Z,20.60
2023-03-21T10:47:11.111Z,21.67
2023-03-21T10:50:17.818Z,23.00
2023-03-21T10:53:24.306Z,27.00
2023-03-21T10:56:30.406Z,22.80
2023-03-21T10:59:44.278Z,21.60
2023-03-21T11:02:50.117Z,22.00
2023-03-21T11:05:57.240Z,20.80
2023-03-21T11:09:06.271Z,20.40
2023-03-21T11:12:13.108Z,21.00
2023-03-21T11:15:29.037Z,22.00
2023-03-21T11:18:40.630Z,21.40
2023-03-21T11:21:44.766Z,22.20
2023-03-21T11:24:52.417Z,22.40
2023-03-21T11:27:56.736Z,22.00
2023-03-21T11:31:03.551Z,22.20
2023-03-21T11:34:09.347Z,23.00
2023-03-21T11:37:20.961Z,22.40
2023-03-21T11:40:26.629Z,21.00
2023-03-21T11:43:33.075Z,24.00
2023-03-21T11:46:42.319Z,22.40
2023-03-21T11:49:48.156Z,22.00
2023-03-21T11:53:07.399Z,19.00
2023-03-21T11:56:23.919Z,22.00
2023-03-21T11:59:40.681Z,21.00
2023-03-21T12:03:12.142Z,21.00
2023-03-21T12:06:26.535Z,19.00
2023-03-21T12:09:39.407Z,20.40
2023-03-21T12:12:50.185Z,21.00
2023-03-21T12:16:06.636Z,24.50
2023-03-21T12:19:41.404Z,23.00
2023-03-21T12:22:58.414Z,24.00
2023-03-21T12:26:11.956Z,26.80
2023-03-21T12:29:37.769Z,26.40
2023-03-21T12:33:05.372Z,28.00
2023-03-21T12:36:20.223Z,25.25
2023-03-21T12:39:30.211Z,28.00
2023-03-21T12:42:53.999Z,29.00
2023-03-21T12:46:01.266Z,27.40
2023-03-21T12:49:10.013Z,30.00
2023-03-21T12:52:20.529Z,30.00
2023-03-21T12:55:26.636Z,30.00
2023-03-21T12:58:32.735Z,30.25
2023-03-21T13:01:40.042Z,30.00
2023-03-21T13:04:48.643Z,30.00
2023-03-21T13:08:00.321Z,28.25
2023-03-21T13:11:05.993Z,30.00
2023-03-21T13:14:17.255Z,27.50
2023-03-21T13:17:28.462Z,29.00
2023-03-21T13:20:39.930Z,27.00
2023-03-21T13:23:59.892Z,27.50
2023-03-21T13:27:06.960Z,29.80
2023-03-21T13:30:22.417Z,27.20
2023-03-21T13:33:31.712Z,30.00
2023-03-21T13:36:38.962Z,28.00
2023-03-21T13:39:47.342Z,30.40
2023-03-21T13:42:54.222Z,29.80
2023-03-21T13:45:57.507Z,31.40
2023-03-21T13:49:02.771Z,28.00
2023-03-21T13:52:26.949Z,34.00
2023-03-21T13:55:38.378Z,33.00
2023-03-21T13:58:52.989Z,32.00
2023-03-21T14:02:02.544Z,31.00
2023-03-21T14:05:09.497Z,32.00
2023-03-21T14:08:31.317Z,30.20
2023-03-21T14:11:46.717Z,31.60
2023-03-21T14:14:54.215Z,30.40
2023-03-21T14:18:06.386Z,32.00
2023-03-21T14:21:24.795Z,29.80
2023-03-21T14:24:28.301Z,30.75
2023-03-21T14:27:37.858Z,29.40
2023-03-21T14:30:43.450Z,30.75
2023-03-21T14:33:50.137Z,32.00
2023-03-21T14:37:00.598Z,25.00
2023-03-21T14:40:09.202Z,26.60
2023-03-21T14:43:13.957Z,25.00
2023-03-21T14:46:17.556Z,25.20
2023-03-21T14:49:26.028Z,26.00
2023-03-21T14:52:33.219Z,26.00
2023-03-21T14:55:43.631Z,26.00
2023-03-21T14:58:49.458Z,25.40
2023-03-21T15:01:55.292Z,25.00
2023-03-21T15:05:06.842Z,24.40
2023-03-21T15:08:15.531Z,26.00
2023-03-21T15:11:18.818Z,28.00
2023-03-21T15:14:28.013Z,24.00
2023-03-21T15:17:31.705Z,25.00
2023-03-21T15:20:38.843Z,24.60
2023-03-21T15:23:45.855Z,23.00
2023-03-21T15:26:51.154Z,21.40
2023-03-21T15:29:56.885Z,25.00
2023-03-21T15:33:07.970Z,27.00
2023-03-21T15:36:11.581Z,25.40
2023-03-21T15:39:17.357Z,24.00
2023-03-21T15:42:31.369Z,28.60
2023-03-21T15:45:47.056Z,24.00
2023-03-21T15:48:52.076Z,29.00
2023-03-21T15:52:00.207Z,30.00
2023-03-21T15:55:03.476Z,30.00
2023-03-21T15:58:13.312Z,30.00
2023-03-21T16:01:20.395Z,30.00
2023-03-21T16:04:24.476Z,31.00
2023-03-21T16:07:28.000Z,31.75
2023-03-21T16:11:10.414Z,30.40
2023-03-21T16:14:13.600Z,32.00
2023-03-21T16:17:30.011Z,32.75
2023-03-21T16:20:36.974Z,32.00
2023-03-21T16:23:40.474Z,31.25
2023-03-21T16:26:47.937Z,33.00
2023-03-21T16:29:51.592Z,32.00
2023-03-21T16:32:57.548Z,34.00
2023-03-21T16:36:00.894Z,36.00
2023-03-21T16:39:14.392Z,33.40
2023-03-21T16:42:17.668Z,33.00
2023-03-21T16:45:20.937Z,33.00
2023-03-21T16:48:25.631Z,37.75
2023-03-21T16:51:34.213Z,33.00
2023-03-21T16:54:37.421Z,33.40
2023-03-21T16:57:40.717Z,34.00
2023-03-21T17:00:43.971Z,35.00
2023-03-21T17:03:49.271Z,35.80
2023-03-21T17:06:54.114Z,32.20
2023-03-21T17:09:57.418Z,36.00
2023-03-21T17:13:00.791Z,36.80
2023-03-21T17:16:04.089Z,34.25
2023-03-21T17:19:13.998Z,33.00
2023-03-21T17:22:17.723Z,35.80
2023-03-21T17:25:21.121Z,36.20
2023-03-21T17:28:24.508Z,30.80
2023-03-21T17:31:32.799Z,35.00
2023-03-21T17:34:37.497Z,36.40
2023-03-21T17:37:40.802Z,35.00
2023-03-21T17:40:44.357Z,36.00
2023-03-21T17:43:48.033Z,36.40
2023-03-21T17:46:52.505Z,35.00
2023-03-21T17:49:57.280Z,33.20
2023-03-21T17:53:00.614Z,35.60
2023-03-21T17:56:03.826Z,33.00
2023-03-21T17:59:09.067Z,36.00
2023-03-21T18:02:12.299Z,35.00
2023-03-21T18:05:17.322Z,34.80
2023-03-21T18:08:20.558Z,35.25
2023-03-21T18:11:24.931Z,37.60
2023-03-21T18:14:29.411Z,37.40
2023-03-21T18:17:33.992Z,38.40
2023-03-21T18:20:52.103Z,39.00
2023-03-21T18:23:57.089Z,39.80
2023-03-21T18:27:00.345Z,39.60
2023-03-21T18:30:28.789Z,40.00
2023-03-21T18:33:28.588Z,40.00
2023-03-21T18:36:34.075Z,38.00
2023-03-21T18:39:38.440Z,40.00
2023-03-21T18:43:19.987Z,38.80
2023-03-21T18:46:07.249Z,39.60
2023-03-21T18:49:52.062Z,40.40
2023-03-21T18:52:35.535Z,41.00
2023-03-21T18:55:46.097Z,40.00
2023-03-21T18:58:49.973Z,39.80
2023-03-21T19:01:53.647Z,39.00
2023-03-21T19:04:57.952Z,39.00
2023-03-21T19:08:02.797Z,39.50
2023-03-21T19:11:07.149Z,41.00
2023-03-21T19:14:10.556Z,42.00
2023-03-21T19:18:15.414Z,39.50
2023-03-21T19:20:38.262Z,41.00
2023-03-21T19:24:20.778Z,38.40
2023-03-21T19:27:06.377Z,39.00
2023-03-21T19:30:15.572Z,44.00
2023-03-21T19:33:20.137Z,41.00
2023-03-21T19:36:23.645Z,41.00
2023-03-21T19:39:28.494Z,40.00
2023-03-21T19:42:32.466Z,42.00
2023-03-21T19:45:36.245Z,42.20
2023-03-21T19:48:40.743Z,43.00
2023-03-21T19:51:44.027Z,40.40
2023-03-21T19:54:48.837Z,42.60
2023-03-21T19:57:53.693Z,40.00
2023-03-21T20:00:57.040Z,40.60
2023-03-21T20:04:00.684Z,43.20
2023-03-21T20:07:03.966Z,40.80
2023-03-21T20:10:11.045Z,41.00
2023-03-21T20:13:14.324Z,42.00
2023-03-21T20:16:18.353Z,44.00
2023-03-21T20:19:23.073Z,37.80
2023-03-21T20:22:46.004Z,42.60
2023-03-21T20:25:50.999Z,41.00
2023-03-21T20:29:22.947Z,43.25
2023-03-21T20:32:21.015Z,42.00
2023-03-21T20:35:55.290Z,40.60
2023-03-21T20:38:47.933Z,38.60
2023-03-21T20:41:54.758Z,43.00
2023-03-21T20:45:00.887Z,44.00
2023-03-21T20:48:04.927Z,43.00
2023-03-21T20:52:14.702Z,43.00
2023-03-21T20:54:34.940Z,43.50
2023-03-21T20:57:40.795Z,44.20
2023-03-21T21:00:44.972Z,43.00
2023-03-21T21:03:49.540Z,41.00
2023-03-21T21:06:54.093Z,43.00
2023-03-21T21:09:57.839Z,46.00
2023-03-21T21:13:02.510Z,43.00
2023-03-21T21:16:06.615Z,43.00
2023-03-21T21:19:09.976Z,44.00
2023-03-21T21:22:13.268Z,42.00
2023-03-21T21:25:16.885Z,44.20
2023-03-21T21:28:32.152Z,43.00
2023-03-21T21:31:35.518Z,40.60
2023-03-21T21:34:39.146Z,43.00
2023-03-21T21:37:43.042Z,41.00
2023-03-21T21:40:46.790Z,41.50
2023-03-21T21:43:52.195Z,42.00
2023-03-21T21:46:55.539Z,43.00
2023-03-21T21:49:58.826Z,43.50
2023-03-21T21:53:04.425Z,43.00
2023-03-21T21:56:08.630Z,43.00
2023-03-21T21:59:16.120Z,41.00
2023-03-21T22:02:19.421Z,41.50
2023-03-21T22:05:22.672Z,41.80
2023-03-21T22:08:26.006Z,40.60
2023-03-21T22:11:29.281Z,41.00
2023-03-21T22:14:34.355Z,39.40
2023-03-21T22:17:37.604Z,42.00
2023-03-21T22:20:41.226Z,43.00
2023-03-21T22:23:44.924Z,41.00
2023-03-21T22:26:48.295Z,40.25
2023-03-21T22:29:53.050Z,41.80
2023-03-21T22:33:08.583Z,40.60
2023-03-21T22:36:13.631Z,41.00
2023-03-21T22:39:17.252Z,39.40
2023-03-21T22:42:20.598Z,41.00
2023-03-21T22:45:25.207Z,41.00
2023-03-21T22:48:30.241Z,40.00
2023-03-21T22:51:33.586Z,40.00
2023-03-21T22:54:37.057Z,43.20
2023-03-21T22:57:40.343Z,42.00
2023-03-21T23:00:45.079Z,40.00
2023-03-21T23:03:48.806Z,41.00
2023-03-21T23:06:52.007Z,41.80
2023-03-21T23:09:55.181Z,41.75
2023-03-21T23:12:58.355Z,43.20
2023-03-21T23:16:06.083Z,43.40
2023-03-21T23:19:10.493Z,43.00
2023-03-21T23:22:13.608Z,44.25
2023-03-21T23:25:17.066Z,44.00
2023-03-21T23:28:20.365Z,40.60
2023-03-21T23:31:27.279Z,41.00
2023-03-21T23:34:30.485Z,41.60
2023-03-21T23:37:33.974Z,44.20
2023-03-21T23:40:40.053Z,45.00
2023-03-21T23:43:44.370Z,44.00
2023-03-21T23:46:49.034Z,43.00
2023-03-21T23:49:52.954Z,42.00
2023-03-21T23:52:56.201Z,43.50
2023-03-21T23:55:59.474Z,43.00
2023-03-21T23:59:02.957Z,44.00
